sensor_id;sensor_type;location;lat;lon;timestamp;pressure;altitude;pressure_sealevel;temperature;humidity
84967;BME280;75275;51.348;12.358;2024-01-11T00:00:12;102003.31;;;-6.11;68.90
84967;BME280;75275;51.348;12.358;2024-01-11T00:02:39;102003.31;;;-6.11;68.19
84967;BME280;75275;51.348;12.358;2024-01-11T00:05:09;102007.44;;;-6.18;68.94
84967;BME280;75275;51.348;12.358;2024-01-11T00:07:36;102006.16;;;-6.35;69.33
84967;BME280;75275;51.348;12.358;2024-01-11T00:10:06;102003.22;;;-6.43;69.42
84967;BME280;75275;51.348;12.358;2024-01-11T00:12:35;102007.09;;;-6.36;69.48
84967;BME280;75275;51.348;12.358;2024-01-11T00:15:02;101999.22;;;-6.26;69.08
84967;BME280;75275;51.348;12.358;2024-01-11T00:17:30;102001.25;;;-6.19;67.90
84967;BME280;75275;51.348;12.358;2024-01-11T00:19:59;102001.88;;;-6.15;67.90
84967;BME280;75275;51.348;12.358;2024-01-11T00:22:27;102015.34;;;-6.17;68.49
84967;BME280;75275;51.348;12.358;2024-01-11T00:24:54;102015.69;;;-6.33;68.78
84967;BME280;75275;51.348;12.358;2024-01-11T00:27:24;102008.53;;;-6.55;68.89
84967;BME280;75275;51.348;12.358;2024-01-11T00:29:53;101997.28;;;-6.69;69.24
84967;BME280;75275;51.348;12.358;2024-01-11T00:32:20;102006.25;;;-6.70;68.97
84967;BME280;75275;51.348;12.358;2024-01-11T00:34:47;102012.50;;;-6.83;69.40
84967;BME280;75275;51.348;12.358;2024-01-11T00:37:15;102000.28;;;-6.96;69.11
84967;BME280;75275;51.348;12.358;2024-01-11T00:39:46;101996.78;;;-6.97;69.77
84967;BME280;75275;51.348;12.358;2024-01-11T00:42:13;101995.06;;;-6.87;69.84
84967;BME280;75275;51.348;12.358;2024-01-11T00:44:39;102006.25;;;-6.70;69.46
84967;BME280;75275;51.348;12.358;2024-01-11T00:47:06;102006.00;;;-6.79;69.47
84967;BME280;75275;51.348;12.358;2024-01-11T00:49:33;102004.50;;;-6.94;70.17
84967;BME280;75275;51.348;12.358;2024-01-11T00:52:02;101987.16;;;-7.11;70.23
84967;BME280;75275;51.348;12.358;2024-01-11T00:54:29;101987.41;;;-7.14;70.28
84967;BME280;75275;51.348;12.358;2024-01-11T00:56:57;101987.78;;;-6.96;70.01
84967;BME280;75275;51.348;12.358;2024-01-11T00:59:24;101981.50;;;-6.84;69.53
84967;BME280;75275;51.348;12.358;2024-01-11T01:01:51;101969.41;;;-6.76;68.92
84967;BME280;75275;51.348;12.358;2024-01-11T01:04:18;101966.38;;;-6.72;68.82
84967;BME280;75275;51.348;12.358;2024-01-11T01:06:45;101957.50;;;-6.61;69.13
84967;BME280;75275;51.348;12.358;2024-01-11T01:09:14;101967.72;;;-6.55;68.72
84967;BME280;75275;51.348;12.358;2024-01-11T01:11:41;101964.44;;;-6.47;68.70
84967;BME280;75275;51.348;12.358;2024-01-11T01:14:09;101970.13;;;-6.52;68.37
84967;BME280;75275;51.348;12.358;2024-01-11T01:16:36;101973.88;;;-6.77;69.33
84967;BME280;75275;51.348;12.358;2024-01-11T01:19:03;101976.63;;;-7.01;68.42
84967;BME280;75275;51.348;12.358;2024-01-11T01:21:30;101983.00;;;-7.26;69.19
84967;BME280;75275;51.348;12.358;2024-01-11T01:23:57;102004.38;;;-7.39;69.85
84967;BME280;75275;51.348;12.358;2024-01-11T01:26:24;102010.91;;;-7.43;69.83
84967;BME280;75275;51.348;12.358;2024-01-11T01:28:51;102006.78;;;-7.47;70.39
84967;BME280;75275;51.348;12.358;2024-01-11T01:31:22;101993.72;;;-7.39;69.99
84967;BME280;75275;51.348;12.358;2024-01-11T01:33:49;102002.59;;;-7.27;69.76
84967;BME280;75275;51.348;12.358;2024-01-11T01:36:16;101993.19;;;-7.20;69.81
84967;BME280;75275;51.348;12.358;2024-01-11T01:38:43;101984.72;;;-7.14;69.66
84967;BME280;75275;51.348;12.358;2024-01-11T01:41:11;101979.06;;;-6.98;69.98
84967;BME280;75275;51.348;12.358;2024-01-11T01:43:37;101983.31;;;-6.84;69.83
84967;BME280;75275;51.348;12.358;2024-01-11T01:46:05;101975.47;;;-6.86;68.66
84967;BME280;75275;51.348;12.358;2024-01-11T01:48:38;101971.44;;;-6.91;69.42
84967;BME280;75275;51.348;12.358;2024-01-11T01:51:07;101972.19;;;-7.00;70.01
84967;BME280;75275;51.348;12.358;2024-01-11T01:53:37;101968.53;;;-6.99;70.00
84967;BME280;75275;51.348;12.358;2024-01-11T01:56:05;101984.53;;;-6.99;69.20
84967;BME280;75275;51.348;12.358;2024-01-11T01:58:33;101981.44;;;-7.17;69.14
84967;BME280;75275;51.348;12.358;2024-01-11T02:01:00;101974.66;;;-7.21;69.55
84967;BME280;75275;51.348;12.358;2024-01-11T02:03:28;101972.50;;;-7.05;69.79
84967;BME280;75275;51.348;12.358;2024-01-11T02:05:56;101967.94;;;-6.92;70.26
84967;BME280;75275;51.348;12.358;2024-01-11T02:08:24;101975.47;;;-6.86;70.07
84967;BME280;75275;51.348;12.358;2024-01-11T02:10:52;101982.84;;;-6.78;69.83
84967;BME280;75275;51.348;12.358;2024-01-11T02:13:20;101966.97;;;-6.68;69.30
84967;BME280;75275;51.348;12.358;2024-01-11T02:15:49;101975.22;;;-6.60;69.37
84967;BME280;75275;51.348;12.358;2024-01-11T02:18:16;101974.72;;;-6.54;69.13
84967;BME280;75275;51.348;12.358;2024-01-11T02:20:44;101970.75;;;-6.48;68.99
84967;BME280;75275;51.348;12.358;2024-01-11T02:23:17;101979.81;;;-6.51;68.68
84967;BME280;75275;51.348;12.358;2024-01-11T02:25:50;101977.91;;;-6.71;67.97
84967;BME280;75275;51.348;12.358;2024-01-11T02:28:17;101969.75;;;-6.92;68.68
84967;BME280;75275;51.348;12.358;2024-01-11T02:30:44;101967.09;;;-6.92;68.94
84967;BME280;75275;51.348;12.358;2024-01-11T02:33:13;101960.31;;;-6.85;69.48
84967;BME280;75275;51.348;12.358;2024-01-11T02:35:42;101967.72;;;-6.78;69.56
84967;BME280;75275;51.348;12.358;2024-01-11T02:38:09;101975.19;;;-6.94;69.01
84967;BME280;75275;51.348;12.358;2024-01-11T02:40:37;101990.44;;;-7.07;68.90
84967;BME280;75275;51.348;12.358;2024-01-11T02:43:10;101997.88;;;-7.23;69.55
84967;BME280;75275;51.348;12.358;2024-01-11T02:45:37;102007.66;;;-7.35;69.08
84967;BME280;75275;51.348;12.358;2024-01-11T02:48:06;102002.69;;;-7.40;69.88
84967;BME280;75275;51.348;12.358;2024-01-11T02:50:33;101995.56;;;-7.39;69.50
84967;BME280;75275;51.348;12.358;2024-01-11T02:53:00;102009.09;;;-7.42;69.56
84967;BME280;75275;51.348;12.358;2024-01-11T02:55:27;101992.19;;;-7.30;69.68
84967;BME280;75275;51.348;12.358;2024-01-11T02:57:54;101990.06;;;-7.14;70.19
84967;BME280;75275;51.348;12.358;2024-01-11T03:00:23;101996.16;;;-7.00;69.90
84967;BME280;75275;51.348;12.358;2024-01-11T03:02:52;102000.38;;;-6.98;69.60
84967;BME280;75275;51.348;12.358;2024-01-11T03:05:20;101992.75;;;-6.91;68.97
84967;BME280;75275;51.348;12.358;2024-01-11T03:07:47;101982.63;;;-6.86;68.88
84967;BME280;75275;51.348;12.358;2024-01-11T03:10:14;101979.56;;;-6.93;68.88
84967;BME280;75275;51.348;12.358;2024-01-11T03:12:42;101982.22;;;-7.04;68.41
84967;BME280;75275;51.348;12.358;2024-01-11T03:15:09;101986.63;;;-7.27;68.68
84967;BME280;75275;51.348;12.358;2024-01-11T03:17:37;101978.72;;;-7.40;68.80
84967;BME280;75275;51.348;12.358;2024-01-11T03:20:05;101966.13;;;-7.38;69.24
84967;BME280;75275;51.348;12.358;2024-01-11T03:22:31;101968.50;;;-7.22;69.87
84967;BME280;75275;51.348;12.358;2024-01-11T03:24:58;101973.22;;;-7.14;68.39
84967;BME280;75275;51.348;12.358;2024-01-11T03:27:25;101968.56;;;-7.35;68.16
84967;BME280;75275;51.348;12.358;2024-01-11T03:29:52;101941.31;;;-7.38;69.80
84967;BME280;75275;51.348;12.358;2024-01-11T03:32:19;101938.91;;;-7.30;70.46
84967;BME280;75275;51.348;12.358;2024-01-11T03:34:48;101935.19;;;-7.16;69.92
84967;BME280;75275;51.348;12.358;2024-01-11T03:37:14;101945.88;;;-7.05;69.09
84967;BME280;75275;51.348;12.358;2024-01-11T03:39:42;101953.88;;;-6.94;69.00
84967;BME280;75275;51.348;12.358;2024-01-11T03:42:08;101939.22;;;-6.88;68.81
84967;BME280;75275;51.348;12.358;2024-01-11T03:44:36;101935.22;;;-6.83;69.11
84967;BME280;75275;51.348;12.358;2024-01-11T03:47:03;101927.97;;;-6.81;68.45
84967;BME280;75275;51.348;12.358;2024-01-11T03:49:30;101920.56;;;-6.77;69.09
84967;BME280;75275;51.348;12.358;2024-01-11T03:51:59;101922.25;;;-6.76;68.82
84967;BME280;75275;51.348;12.358;2024-01-11T03:54:25;101927.34;;;-6.73;68.85
84967;BME280;75275;51.348;12.358;2024-01-11T03:56:52;101953.53;;;-6.67;68.97
84967;BME280;75275;51.348;12.358;2024-01-11T03:59:19;101951.34;;;-6.73;68.67
84967;BME280;75275;51.348;12.358;2024-01-11T04:01:46;101945.16;;;-6.85;68.71
84967;BME280;75275;51.348;12.358;2024-01-11T04:04:14;101962.75;;;-6.82;68.97
84967;BME280;75275;51.348;12.358;2024-01-11T04:06:41;101959.34;;;-6.95;68.29
84967;BME280;75275;51.348;12.358;2024-01-11T04:09:09;101959.41;;;-7.19;68.35
84967;BME280;75275;51.348;12.358;2024-01-11T04:11:36;101949.09;;;-7.24;69.36
84967;BME280;75275;51.348;12.358;2024-01-11T04:14:03;101969.81;;;-7.16;69.87
84967;BME280;75275;51.348;12.358;2024-01-11T04:16:30;101978.53;;;-7.25;69.17
84967;BME280;75275;51.348;12.358;2024-01-11T04:18:59;101987.22;;;-7.35;69.55
84967;BME280;75275;51.348;12.358;2024-01-11T04:21:28;101988.75;;;-7.43;69.70
84967;BME280;75275;51.348;12.358;2024-01-11T04:23:55;101986.91;;;-7.54;69.40
84967;BME280;75275;51.348;12.358;2024-01-11T04:26:24;101982.44;;;-7.54;69.92
84967;BME280;75275;51.348;12.358;2024-01-11T04:28:52;101998.19;;;-7.51;69.92
84967;BME280;75275;51.348;12.358;2024-01-11T04:31:19;102006.38;;;-7.54;70.07
84967;BME280;75275;51.348;12.358;2024-01-11T04:33:48;102018.00;;;-7.55;70.16
84967;BME280;75275;51.348;12.358;2024-01-11T04:36:15;102017.25;;;-7.57;70.28
84967;BME280;75275;51.348;12.358;2024-01-11T04:38:42;102028.03;;;-7.58;69.95
84967;BME280;75275;51.348;12.358;2024-01-11T04:41:10;102019.50;;;-7.63;70.51
84967;BME280;75275;51.348;12.358;2024-01-11T04:43:41;102024.84;;;-7.63;70.38
84967;BME280;75275;51.348;12.358;2024-01-11T04:46:14;102024.63;;;-7.60;69.92
84967;BME280;75275;51.348;12.358;2024-01-11T04:48:42;102010.59;;;-7.62;69.83
84967;BME280;75275;51.348;12.358;2024-01-11T04:51:09;102013.97;;;-7.60;69.71
84967;BME280;75275;51.348;12.358;2024-01-11T04:53:42;102003.72;;;-7.54;70.02
84967;BME280;75275;51.348;12.358;2024-01-11T04:56:10;101995.91;;;-7.44;69.67
84967;BME280;75275;51.348;12.358;2024-01-11T04:58:39;101975.88;;;-7.25;70.29
84967;BME280;75275;51.348;12.358;2024-01-11T05:01:07;101979.03;;;-7.09;69.15
84967;BME280;75275;51.348;12.358;2024-01-11T05:03:38;101979.06;;;-6.98;69.87
84967;BME280;75275;51.348;12.358;2024-01-11T05:06:05;101974.94;;;-6.91;69.44
84967;BME280;75275;51.348;12.358;2024-01-11T05:08:32;101968.31;;;-6.85;68.99
84967;BME280;75275;51.348;12.358;2024-01-11T05:11:01;101958.72;;;-6.76;68.81
84967;BME280;75275;51.348;12.358;2024-01-11T05:13:28;101946.63;;;-6.81;68.13
84967;BME280;75275;51.348;12.358;2024-01-11T05:15:58;101958.50;;;-6.73;69.06
84967;BME280;75275;51.348;12.358;2024-01-11T05:18:25;101965.78;;;-6.64;68.50
84967;BME280;75275;51.348;12.358;2024-01-11T05:20:52;101972.56;;;-6.60;68.02
84967;BME280;75275;51.348;12.358;2024-01-11T05:23:20;101975.59;;;-6.53;67.86
84967;BME280;75275;51.348;12.358;2024-01-11T05:25:47;101967.00;;;-6.57;67.53
84967;BME280;75275;51.348;12.358;2024-01-11T05:28:13;101972.34;;;-6.57;67.64
84967;BME280;75275;51.348;12.358;2024-01-11T05:30:40;101970.13;;;-6.63;67.81
84967;BME280;75275;51.348;12.358;2024-01-11T05:33:09;101973.78;;;-6.64;67.83
84967;BME280;75275;51.348;12.358;2024-01-11T05:35:40;101978.59;;;-6.58;67.50
84967;BME280;75275;51.348;12.358;2024-01-11T05:38:09;101986.28;;;-6.53;67.96
84967;BME280;75275;51.348;12.358;2024-01-11T05:40:39;101981.41;;;-6.60;67.93
84967;BME280;75275;51.348;12.358;2024-01-11T05:43:06;101974.97;;;-6.68;68.08
84967;BME280;75275;51.348;12.358;2024-01-11T05:45:33;101974.03;;;-6.67;68.16
84967;BME280;75275;51.348;12.358;2024-01-11T05:48:00;101978.84;;;-6.61;68.10
84967;BME280;75275;51.348;12.358;2024-01-11T05:50:33;101999.22;;;-6.49;67.71
84967;BME280;75275;51.348;12.358;2024-01-11T05:53:00;102003.59;;;-6.59;67.19
84967;BME280;75275;51.348;12.358;2024-01-11T05:55:28;102014.09;;;-6.80;68.40
84967;BME280;75275;51.348;12.358;2024-01-11T05:57:55;102015.66;;;-7.00;68.55
84967;BME280;75275;51.348;12.358;2024-01-11T06:00:22;102008.56;;;-7.12;69.06
84967;BME280;75275;51.348;12.358;2024-01-11T06:02:49;102011.84;;;-7.09;69.21
84967;BME280;75275;51.348;12.358;2024-01-11T06:05:18;102012.69;;;-7.08;68.92
84967;BME280;75275;51.348;12.358;2024-01-11T06:07:47;102006.22;;;-6.93;68.63
84967;BME280;75275;51.348;12.358;2024-01-11T06:10:14;102005.03;;;-6.78;68.93
84967;BME280;75275;51.348;12.358;2024-01-11T06:12:42;101994.38;;;-6.66;68.64
84967;BME280;75275;51.348;12.358;2024-01-11T06:15:09;102004.31;;;-6.57;68.59
84967;BME280;75275;51.348;12.358;2024-01-11T06:17:38;102023.94;;;-6.47;68.34
84967;BME280;75275;51.348;12.358;2024-01-11T06:20:08;102028.56;;;-6.60;68.33
84967;BME280;75275;51.348;12.358;2024-01-11T06:22:36;102037.00;;;-6.78;68.74
84967;BME280;75275;51.348;12.358;2024-01-11T06:25:05;102024.34;;;-6.98;68.75
84967;BME280;75275;51.348;12.358;2024-01-11T06:27:32;102018.78;;;-7.06;68.87
84967;BME280;75275;51.348;12.358;2024-01-11T06:29:59;102004.84;;;-6.98;69.57
84967;BME280;75275;51.348;12.358;2024-01-11T06:32:26;102005.72;;;-6.87;70.21
84967;BME280;75275;51.348;12.358;2024-01-11T06:34:53;102000.53;;;-6.77;69.50
84967;BME280;75275;51.348;12.358;2024-01-11T06:37:20;101996.19;;;-6.67;69.55
84967;BME280;75275;51.348;12.358;2024-01-11T06:39:48;101983.94;;;-6.58;68.75
84967;BME280;75275;51.348;12.358;2024-01-11T06:42:16;101985.41;;;-6.54;68.34
84967;BME280;75275;51.348;12.358;2024-01-11T06:44:43;101981.28;;;-6.58;68.76
84967;BME280;75275;51.348;12.358;2024-01-11T06:47:10;101965.41;;;-6.60;68.68
84967;BME280;75275;51.348;12.358;2024-01-11T06:49:50;101970.28;;;-6.53;67.97
84967;BME280;75275;51.348;12.358;2024-01-11T06:52:20;101978.13;;;-6.41;67.42
84967;BME280;75275;51.348;12.358;2024-01-11T06:54:47;101986.34;;;-6.33;67.19
84967;BME280;75275;51.348;12.358;2024-01-11T06:57:15;101987.94;;;-6.30;66.77
84967;BME280;75275;51.348;12.358;2024-01-11T06:59:42;101977.88;;;-6.38;66.93
84967;BME280;75275;51.348;12.358;2024-01-11T07:02:11;101972.94;;;-6.42;67.48
84967;BME280;75275;51.348;12.358;2024-01-11T07:04:43;101964.41;;;-6.36;67.27
84967;BME280;75275;51.348;12.358;2024-01-11T07:07:11;101961.75;;;-6.36;66.89
84967;BME280;75275;51.348;12.358;2024-01-11T07:09:39;101977.88;;;-6.26;66.93
84967;BME280;75275;51.348;12.358;2024-01-11T07:12:06;101963.31;;;-6.22;66.00
84967;BME280;75275;51.348;12.358;2024-01-11T07:14:35;101971.53;;;-6.14;65.96
84967;BME280;75275;51.348;12.358;2024-01-11T07:17:02;101973.13;;;-6.12;65.97
84967;BME280;75275;51.348;12.358;2024-01-11T07:19:29;101976.38;;;-6.08;65.85
84967;BME280;75275;51.348;12.358;2024-01-11T07:21:56;101974.06;;;-6.01;66.03
84967;BME280;75275;51.348;12.358;2024-01-11T07:24:23;101989.03;;;-5.89;65.09
84967;BME280;75275;51.348;12.358;2024-01-11T07:26:53;102003.94;;;-5.75;65.44
84967;BME280;75275;51.348;12.358;2024-01-11T07:29:20;102004.06;;;-5.77;64.56
84967;BME280;75275;51.348;12.358;2024-01-11T07:31:49;101999.84;;;-5.91;64.39
84967;BME280;75275;51.348;12.358;2024-01-11T07:34:16;101990.44;;;-5.95;64.41
84967;BME280;75275;51.348;12.358;2024-01-11T07:36:43;101973.09;;;-6.00;64.40
84967;BME280;75275;51.348;12.358;2024-01-11T07:39:10;101972.25;;;-6.01;65.06
84967;BME280;75275;51.348;12.358;2024-01-11T07:41:38;101980.13;;;-5.99;65.27
84967;BME280;75275;51.348;12.358;2024-01-11T07:44:05;101983.13;;;-5.93;64.78
84967;BME280;75275;51.348;12.358;2024-01-11T07:46:32;101979.16;;;-5.98;64.83
84967;BME280;75275;51.348;12.358;2024-01-11T07:49:03;101971.03;;;-5.97;64.46
84967;BME280;75275;51.348;12.358;2024-01-11T07:51:30;101975.66;;;-5.99;64.63
84967;BME280;75275;51.348;12.358;2024-01-11T07:53:57;101980.72;;;-5.96;64.68
84967;BME280;75275;51.348;12.358;2024-01-11T07:56:27;101981.31;;;-5.92;64.31
84967;BME280;75275;51.348;12.358;2024-01-11T07:58:54;101993.16;;;-5.85;64.16
84967;BME280;75275;51.348;12.358;2024-01-11T08:01:21;101984.16;;;-5.73;64.33
84967;BME280;75275;51.348;12.358;2024-01-11T08:03:48;101969.69;;;-5.70;63.59
84967;BME280;75275;51.348;12.358;2024-01-11T08:06:22;101985.09;;;-5.63;63.65
84967;BME280;75275;51.348;12.358;2024-01-11T08:08:51;101992.13;;;-5.62;63.53
84967;BME280;75275;51.348;12.358;2024-01-11T08:11:18;102006.78;;;-5.56;63.52
84967;BME280;75275;51.348;12.358;2024-01-11T08:13:45;102013.84;;;-5.55;63.58
84967;BME280;75275;51.348;12.358;2024-01-11T08:16:15;102010.97;;;-5.42;63.68
84967;BME280;75275;51.348;12.358;2024-01-11T08:18:43;101998.41;;;-5.30;63.16
84967;BME280;75275;51.348;12.358;2024-01-11T08:21:11;102006.97;;;-5.16;63.04
84967;BME280;75275;51.348;12.358;2024-01-11T08:23:41;102022.75;;;-5.13;63.32
84967;BME280;75275;51.348;12.358;2024-01-11T08:26:11;102020.06;;;-5.13;63.34
84967;BME280;75275;51.348;12.358;2024-01-11T08:28:40;102033.44;;;-5.13;63.17
84967;BME280;75275;51.348;12.358;2024-01-11T08:31:07;102008.72;;;-5.05;62.63
84967;BME280;75275;51.348;12.358;2024-01-11T08:33:34;102007.13;;;-4.96;62.05
84967;BME280;75275;51.348;12.358;2024-01-11T08:36:03;102000.13;;;-4.88;61.84
84967;BME280;75275;51.348;12.358;2024-01-11T08:38:30;101992.03;;;-4.76;61.49
84967;BME280;75275;51.348;12.358;2024-01-11T08:40:59;101985.88;;;-4.67;61.27
84967;BME280;75275;51.348;12.358;2024-01-11T08:43:27;101978.47;;;-4.54;61.42
84967;BME280;75275;51.348;12.358;2024-01-11T08:45:54;101976.72;;;-4.34;61.19
84967;BME280;75275;51.348;12.358;2024-01-11T08:48:21;101970.81;;;-4.38;60.85
84967;BME280;75275;51.348;12.358;2024-01-11T08:50:48;101960.41;;;-4.31;60.59
84967;BME280;75275;51.348;12.358;2024-01-11T08:53:17;101970.13;;;-4.30;60.42
84967;BME280;75275;51.348;12.358;2024-01-11T08:55:43;101968.03;;;-4.26;60.62
84967;BME280;75275;51.348;12.358;2024-01-11T08:58:12;101973.09;;;-4.23;60.86
84967;BME280;75275;51.348;12.358;2024-01-11T09:00:39;101983.41;;;-4.19;60.61
84967;BME280;75275;51.348;12.358;2024-01-11T09:03:06;101981.56;;;-4.18;60.71
84967;BME280;75275;51.348;12.358;2024-01-11T09:05:33;101985.50;;;-4.22;60.69
84967;BME280;75275;51.348;12.358;2024-01-11T09:08:00;101979.91;;;-4.09;60.37
84967;BME280;75275;51.348;12.358;2024-01-11T09:10:27;101986.81;;;-4.07;60.15
84967;BME280;75275;51.348;12.358;2024-01-11T09:12:54;101980.75;;;-4.09;60.41
84967;BME280;75275;51.348;12.358;2024-01-11T09:15:22;101977.94;;;-4.07;60.48
84967;BME280;75275;51.348;12.358;2024-01-11T09:17:49;101974.28;;;-4.06;60.38
84967;BME280;75275;51.348;12.358;2024-01-11T09:20:16;101978.38;;;-3.93;60.60
84967;BME280;75275;51.348;12.358;2024-01-11T09:22:44;101979.88;;;-2.64;58.04
84967;BME280;75275;51.348;12.358;2024-01-11T09:25:10;101988.34;;;-1.58;54.16
84967;BME280;75275;51.348;12.358;2024-01-11T09:27:38;101993.19;;;-1.26;52.11
84967;BME280;75275;51.348;12.358;2024-01-11T09:30:08;101993.47;;;-0.93;50.82
84967;BME280;75275;51.348;12.358;2024-01-11T09:32:36;102012.94;;;-1.17;51.65
84967;BME280;75275;51.348;12.358;2024-01-11T09:35:04;102013.75;;;-1.53;52.82
84967;BME280;75275;51.348;12.358;2024-01-11T09:37:31;102008.88;;;-1.39;52.71
84967;BME280;75275;51.348;12.358;2024-01-11T09:39:58;101997.09;;;-1.21;51.87
84967;BME280;75275;51.348;12.358;2024-01-11T09:42:29;101992.63;;;-0.68;50.55
84967;BME280;75275;51.348;12.358;2024-01-11T09:44:58;101971.53;;;0.63;46.21
84967;BME280;75275;51.348;12.358;2024-01-11T09:47:29;101971.66;;;1.74;44.56
84967;BME280;75275;51.348;12.358;2024-01-11T09:49:58;101965.91;;;2.48;41.85
84967;BME280;75275;51.348;12.358;2024-01-11T09:52:29;101969.50;;;2.09;42.65
84967;BME280;75275;51.348;12.358;2024-01-11T09:54:57;101968.66;;;1.69;42.77
84967;BME280;75275;51.348;12.358;2024-01-11T09:57:24;101964.78;;;0.67;45.38
84967;BME280;75275;51.348;12.358;2024-01-11T09:59:54;101953.75;;;-0.31;48.57
84967;BME280;75275;51.348;12.358;2024-01-11T10:02:22;101952.50;;;-1.05;51.28
84967;BME280;75275;51.348;12.358;2024-01-11T10:04:50;101963.53;;;-1.70;52.33
84967;BME280;75275;51.348;12.358;2024-01-11T10:07:19;101965.59;;;-2.00;54.05
84967;BME280;75275;51.348;12.358;2024-01-11T10:09:48;101954.19;;;-2.11;54.89
84967;BME280;75275;51.348;12.358;2024-01-11T10:12:15;101953.50;;;-2.13;54.55
84967;BME280;75275;51.348;12.358;2024-01-11T10:14:45;101945.28;;;-2.12;55.17
84967;BME280;75275;51.348;12.358;2024-01-11T10:17:12;101947.19;;;-2.22;55.37
84967;BME280;75275;51.348;12.358;2024-01-11T10:19:39;101952.00;;;-2.26;55.55
84967;BME280;75275;51.348;12.358;2024-01-11T10:22:06;101941.16;;;-2.34;55.71
84967;BME280;75275;51.348;12.358;2024-01-11T10:24:35;101939.94;;;-2.39;56.18
84967;BME280;75275;51.348;12.358;2024-01-11T10:27:02;101934.56;;;-2.39;56.59
84967;BME280;75275;51.348;12.358;2024-01-11T10:29:30;101935.44;;;-2.49;56.51
84967;BME280;75275;51.348;12.358;2024-01-11T10:31:57;101929.88;;;-2.65;56.54
84967;BME280;75275;51.348;12.358;2024-01-11T10:34:24;101930.19;;;-2.68;57.00
84967;BME280;75275;51.348;12.358;2024-01-11T10:36:52;101912.97;;;-2.75;57.06
84967;BME280;75275;51.348;12.358;2024-01-11T10:39:24;101917.34;;;-2.74;57.71
84967;BME280;75275;51.348;12.358;2024-01-11T10:42:03;101926.75;;;-2.60;57.99
84967;BME280;75275;51.348;12.358;2024-01-11T10:44:33;101912.84;;;-2.46;57.57
84967;BME280;75275;51.348;12.358;2024-01-11T10:47:02;101923.75;;;-2.30;56.79
84967;BME280;75275;51.348;12.358;2024-01-11T10:49:32;101917.25;;;-2.27;57.12
84967;BME280;75275;51.348;12.358;2024-01-11T10:52:00;101905.50;;;-2.26;56.76
84967;BME280;75275;51.348;12.358;2024-01-11T10:54:28;101907.19;;;-2.25;56.57
84967;BME280;75275;51.348;12.358;2024-01-11T10:56:58;101907.91;;;-2.23;56.47
84967;BME280;75275;51.348;12.358;2024-01-11T10:59:26;101905.28;;;-2.15;56.87
84967;BME280;75275;51.348;12.358;2024-01-11T11:01:54;101897.34;;;-2.07;56.70
84967;BME280;75275;51.348;12.358;2024-01-11T11:04:22;101878.16;;;-1.94;56.07
84967;BME280;75275;51.348;12.358;2024-01-11T11:06:50;101866.31;;;-1.65;56.27
84967;BME280;75275;51.348;12.358;2024-01-11T11:09:18;101868.94;;;-1.30;55.31
84967;BME280;75275;51.348;12.358;2024-01-11T11:11:46;101872.69;;;-0.97;53.78
84967;BME280;75275;51.348;12.358;2024-01-11T11:14:15;101877.00;;;-0.69;52.30
84967;BME280;75275;51.348;12.358;2024-01-11T11:16:44;101879.66;;;-0.43;52.30
84967;BME280;75275;51.348;12.358;2024-01-11T11:19:11;101883.63;;;-0.13;51.65
84967;BME280;75275;51.348;12.358;2024-01-11T11:21:41;101881.81;;;0.20;51.09
84967;BME280;75275;51.348;12.358;2024-01-11T11:24:08;101890.25;;;0.33;50.22
84967;BME280;75275;51.348;12.358;2024-01-11T11:26:41;101872.03;;;0.35;50.63
84967;BME280;75275;51.348;12.358;2024-01-11T11:29:09;101883.66;;;0.36;50.32
84967;BME280;75275;51.348;12.358;2024-01-11T11:31:38;101890.59;;;0.38;50.53
84967;BME280;75275;51.348;12.358;2024-01-11T11:34:05;101885.19;;;0.22;50.09
84967;BME280;75275;51.348;12.358;2024-01-11T11:36:33;101885.66;;;0.01;50.84
84967;BME280;75275;51.348;12.358;2024-01-11T11:39:02;101875.53;;;0.03;51.44
84967;BME280;75275;51.348;12.358;2024-01-11T11:41:30;101873.16;;;-0.25;51.35
84967;BME280;75275;51.348;12.358;2024-01-11T11:44:01;101872.53;;;-0.53;51.36
84967;BME280;75275;51.348;12.358;2024-01-11T11:46:29;101871.50;;;-0.60;52.48
84967;BME280;75275;51.348;12.358;2024-01-11T11:48:58;101865.31;;;-0.44;52.60
84967;BME280;75275;51.348;12.358;2024-01-11T11:51:26;101875.66;;;-0.15;50.97
84967;BME280;75275;51.348;12.358;2024-01-11T11:53:53;101878.41;;;0.18;51.14
84967;BME280;75275;51.348;12.358;2024-01-11T11:56:21;101873.06;;;0.42;51.11
84967;BME280;75275;51.348;12.358;2024-01-11T11:58:51;101863.25;;;0.58;49.51
84967;BME280;75275;51.348;12.358;2024-01-11T12:01:20;101862.41;;;0.57;50.04
84967;BME280;75275;51.348;12.358;2024-01-11T12:03:50;101838.16;;;0.57;50.82
84967;BME280;75275;51.348;12.358;2024-01-11T12:06:20;101843.38;;;0.59;49.96
84967;BME280;75275;51.348;12.358;2024-01-11T12:08:49;101840.28;;;0.86;50.18
84967;BME280;75275;51.348;12.358;2024-01-11T12:11:19;101830.09;;;1.05;50.33
84967;BME280;75275;51.348;12.358;2024-01-11T12:13:46;101824.72;;;1.05;48.72
84967;BME280;75275;51.348;12.358;2024-01-11T12:16:13;101809.38;;;0.97;49.23
84967;BME280;75275;51.348;12.358;2024-01-11T12:18:41;101810.59;;;0.86;49.34
84967;BME280;75275;51.348;12.358;2024-01-11T12:21:08;101806.56;;;0.82;50.31
84967;BME280;75275;51.348;12.358;2024-01-11T12:23:38;101809.06;;;0.92;49.46
84967;BME280;75275;51.348;12.358;2024-01-11T12:26:06;101807.75;;;0.88;49.78
84967;BME280;75275;51.348;12.358;2024-01-11T12:28:38;101816.00;;;0.86;49.33
84967;BME280;75275;51.348;12.358;2024-01-11T12:31:07;101805.91;;;0.72;50.00
84967;BME280;75275;51.348;12.358;2024-01-11T12:33:34;101807.75;;;0.80;49.39
84967;BME280;75275;51.348;12.358;2024-01-11T12:36:05;101813.00;;;0.65;50.09
84967;BME280;75275;51.348;12.358;2024-01-11T12:38:33;101800.53;;;0.64;50.99
84967;BME280;75275;51.348;12.358;2024-01-11T12:41:02;101801.53;;;0.71;49.98
84967;BME280;75275;51.348;12.358;2024-01-11T12:43:29;101803.56;;;0.69;50.55